Time;durP1;ratioP1;P1;durP2;ratioP2;P2;SDS_P1;SDS_P2;PMS_P1;PMS_P2;Temp;Humidity;BMP_temperature;BMP_pressure;BME280_temperature;BME280_humidity;BME280_pressure;Samples;Min_cycle;Max_cycle;Signal;HPM_P1;HPM_P2
2022/07/13 00:00:59;;;;;;;0.50;0.20;;;13.80;99.90;;;;;;4948835;28;20138;-72
2022/07/13 00:03:26;;;;;;;0.50;0.50;;;13.90;99.90;;;;;;4948227;29;20023;-74
2022/07/13 00:05:53;;;;;;;0.90;0.30;;;14.00;99.90;;;;;;4947633;28;20062;-74
2022/07/13 00:08:21;;;;;;;2.70;0.32;;;14.10;99.90;;;;;;4952346;29;20031;-74
2022/07/13 00:10:48;;;;;;;0.95;0.20;;;14.20;99.90;;;;;;4949105;28;20035;-75
2022/07/13 00:13:16;;;;;;;0.60;0.22;;;14.30;99.90;;;;;;4940664;28;20042;-74
2022/07/13 00:15:43;;;;;;;0.30;0.22;;;14.50;99.90;;;;;;4943708;29;20074;-74
2022/07/13 00:18:10;;;;;;;1.65;0.57;;;14.60;99.90;;;;;;4948437;28;20039;-73
2022/07/13 00:20:38;;;;;;;2.13;0.20;;;14.80;99.70;;;;;;4947807;29;20131;-74
2022/07/13 00:23:05;;;;;;;0.32;0.10;;;15.10;99.40;;;;;;4941811;29;20034;-75
2022/07/13 00:25:33;;;;;;;1.98;0.10;;;15.40;98.50;;;;;;4949326;29;20039;-76
2022/07/13 00:28:00;;;;;;;0.22;0.10;;;15.80;97.80;;;;;;4944254;29;20059;-76
2022/07/13 00:30:27;;;;;;;0.60;0.10;;;16.80;96.50;;;;;;4952745;28;20174;-75
2022/07/13 00:32:55;;;;;;;0.10;0.10;;;17.70;96.20;;;;;;4941070;29;20055;-74
2022/07/13 00:35:22;;;;;;;0.40;0.10;;;18.50;94.70;;;;;;4952637;29;20473;-73
2022/07/13 00:37:50;;;;;;;0.20;0.10;;;18.30;93.80;;;;;;4947124;29;20524;-77
2022/07/13 00:40:17;;;;;;;0.93;0.20;;;17.90;94.30;;;;;;4952044;29;20038;-76
2022/07/13 00:42:45;;;;;;;0.85;0.10;;;17.20;94.40;;;;;;4938029;29;20043;-77
2022/07/13 00:45:12;;;;;;;1.45;0.05;;;16.50;95.30;;;;;;4950552;29;20117;-75
2022/07/13 00:47:41;;;;;;;0.20;0.10;;;16.10;95.60;;;;;;4949106;28;20027;-74
2022/07/13 00:50:09;;;;;;;0.28;0.08;;;15.80;96.30;;;;;;4951418;29;20034;-75
2022/07/13 00:52:38;;;;;;;1.02;0.68;;;15.70;97.10;;;;;;4936554;28;20401;-74
2022/07/13 00:55:07;;;;;;;0.95;0.10;;;15.70;96.60;;;;;;4933645;28;20035;-75
2022/07/13 00:57:36;;;;;;;0.80;0.22;;;15.90;96.40;;;;;;4940319;29;20077;-75
2022/07/13 01:00:12;;;;;;;0.63;0.38;;;15.90;96.40;;;;;;4952478;29;20111;-75
2022/07/13 01:02:41;;;;;;;0.93;0.20;;;16.20;96.50;;;;;;4946685;29;20098;-75
2022/07/13 01:05:11;;;;;;;0.05;0.00;;;16.60;95.50;;;;;;4949963;29;20039;-75
2022/07/13 01:07:39;;;;;;;0.63;0.10;;;16.90;95.40;;;;;;4936949;29;20512;-74
2022/07/13 01:10:11;;;;;;;0.47;0.47;;;18.00;94.10;;;;;;4951163;28;20035;-74
2022/07/13 01:12:40;;;;;;;1.35;0.10;;;19.30;93.00;;;;;;4938066;29;20048;-74
2022/07/13 01:15:09;;;;;;;0.00;0.00;;;20.30;91.40;;;;;;4949744;29;20027;-73
2022/07/13 01:17:38;;;;;;;0.05;0.05;;;20.90;90.90;;;;;;4945108;28;20055;-74
2022/07/13 01:20:07;;;;;;;1.33;0.20;;;21.60;90.30;;;;;;4936646;28;20030;-75
2022/07/13 01:22:44;;;;;;;0.77;0.10;;;22.10;90.00;;;;;;4935019;28;20058;-75
2022/07/13 01:25:13;;;;;;;0.77;0.20;;;22.50;89.80;;;;;;4951800;29;20027;-74
2022/07/13 01:27:42;;;;;;;0.22;0.15;;;22.70;87.40;;;;;;4946249;29;20517;-74
2022/07/13 01:30:10;;;;;;;1.42;0.20;;;23.20;86.80;;;;;;4944888;28;20031;-76
2022/07/13 01:32:51;;;;;;;0.22;0.10;;;23.20;87.10;;;;;;4939241;29;20126;-74
2022/07/13 01:35:21;;;;;;;0.20;0.13;;;23.30;85.10;;;;;;4953640;28;20035;-74
2022/07/13 01:37:48;;;;;;;0.65;0.45;;;22.90;86.10;;;;;;4936683;29;20047;-75
2022/07/13 01:40:16;;;;;;;1.35;0.20;;;22.90;85.50;;;;;;4936671;29;20107;-74
2022/07/13 01:42:50;;;;;;;2.50;0.30;;;22.00;86.40;;;;;;4947136;28;20613;-74
2022/07/13 01:45:21;;;;;;;1.42;0.20;;;21.50;87.80;;;;;;4953554;29;20039;-74
2022/07/13 01:47:50;;;;;;;0.70;0.20;;;21.60;87.30;;;;;;4940233;29;20032;-75
2022/07/13 01:50:21;;;;;;;0.98;0.15;;;21.30;87.80;;;;;;4955032;29;20041;-74
2022/07/13 01:52:49;;;;;;;0.30;0.20;;;20.80;89.10;;;;;;4948627;29;20050;-74
2022/07/13 01:55:16;;;;;;;0.28;0.10;;;20.90;90.30;;;;;;4954437;29;20175;-74
2022/07/13 01:57:44;;;;;;;0.55;0.25;;;20.80;89.50;;;;;;4953844;28;20035;-75
2022/07/13 02:00:22;;;;;;;2.10;0.30;;;20.80;89.90;;;;;;4952159;28;20378;-74
2022/07/13 02:02:49;;;;;;;0.68;0.20;;;21.70;87.80;;;;;;4946506;29;20027;-74
2022/07/13 02:05:18;;;;;;;0.50;0.22;;;22.30;87.60;;;;;;4950261;29;20035;-75
2022/07/13 02:07:45;;;;;;;1.25;0.22;;;22.80;85.10;;;;;;4945690;28;20043;-74
2022/07/13 02:10:14;;;;;;;0.88;0.30;;;22.70;84.50;;;;;;4947880;29;20078;-75
2022/07/13 02:12:42;;;;;;;0.55;0.20;;;22.60;84.10;;;;;;4946774;28;20047;-75
2022/07/13 02:15:11;;;;;;;1.00;0.13;;;22.50;84.10;;;;;;4954144;29;20027;-75
2022/07/13 02:17:39;;;;;;;1.67;0.20;;;23.10;86.20;;;;;;4947233;28;20035;-75
2022/07/13 02:20:07;;;;;;;1.00;0.25;;;23.60;84.70;;;;;;4952262;29;20039;-75
2022/07/13 02:22:45;;;;;;;2.10;0.55;;;23.80;82.20;;;;;;4940770;29;20032;-74
2022/07/13 02:25:13;;;;;;;1.33;0.20;;;23.50;83.00;;;;;;4946373;28;20031;-76
2022/07/13 02:27:41;;;;;;;1.27;0.73;;;23.40;83.00;;;;;;4947582;28;20019;-75
2022/07/13 02:30:10;;;;;;;1.05;0.10;;;23.00;83.80;;;;;;4952892;29;20042;-72
2022/07/13 02:32:38;;;;;;;0.73;0.17;;;22.80;84.40;;;;;;4941459;28;20450;-76
2022/07/13 02:35:06;;;;;;;0.90;0.20;;;23.00;83.40;;;;;;4951475;28;20140;-75
2022/07/13 02:37:33;;;;;;;0.65;0.10;;;23.30;83.60;;;;;;4945600;29;20031;-74
2022/07/13 02:40:01;;;;;;;0.90;0.38;;;23.30;81.90;;;;;;4954711;29;20039;-74
2022/07/13 02:42:28;;;;;;;3.03;0.38;;;22.50;82.80;;;;;;4941188;28;20573;-73
2022/07/13 02:44:56;;;;;;;0.38;0.10;;;21.60;84.30;;;;;;4948725;28;20035;-76
2022/07/13 02:47:23;;;;;;;0.98;0.13;;;20.80;86.10;;;;;;4947999;29;20488;-74
2022/07/13 02:49:51;;;;;;;0.38;0.10;;;19.80;88.30;;;;;;4941063;28;20056;-74
2022/07/13 02:52:18;;;;;;;0.10;0.10;;;19.10;88.80;;;;;;4941436;29;20489;-74
2022/07/13 02:54:46;;;;;;;0.45;0.15;;;19.30;90.10;;;;;;4953118;28;20390;-74
2022/07/13 02:57:14;;;;;;;0.47;0.13;;;19.40;90.00;;;;;;4943025;28;20039;-75
2022/07/13 02:59:41;;;;;;;0.85;0.22;;;20.00;88.90;;;;;;4939971;28;20031;-74
2022/07/13 03:02:08;;;;;;;0.65;0.10;;;20.10;89.80;;;;;;4939702;28;20032;-73
2022/07/13 03:04:36;;;;;;;1.95;0.20;;;20.00;88.70;;;;;;4946775;29;20426;-75
2022/07/13 03:07:04;;;;;;;0.40;0.20;;;19.50;89.60;;;;;;4952342;29;20206;-73
2022/07/13 03:09:31;;;;;;;1.17;0.25;;;19.80;89.30;;;;;;4939418;29;20094;-74
2022/07/13 03:11:58;;;;;;;0.30;0.15;;;20.30;89.00;;;;;;4938772;29;20124;-73
2022/07/13 03:14:26;;;;;;;0.40;0.20;;;20.10;88.20;;;;;;4950109;28;20031;-74
2022/07/13 03:16:53;;;;;;;0.65;0.10;;;19.40;90.30;;;;;;4949003;29;20031;-73
2022/07/13 03:19:21;;;;;;;0.90;0.50;;;18.70;90.40;;;;;;4950764;29;20035;-74
2022/07/13 03:21:49;;;;;;;0.40;0.30;;;18.20;91.30;;;;;;4947109;29;20050;-73
2022/07/13 03:24:16;;;;;;;0.50;0.47;;;18.60;91.40;;;;;;4947173;29;20086;-75
2022/07/13 03:26:44;;;;;;;0.32;0.10;;;18.80;91.10;;;;;;4933465;29;20036;-75
2022/07/13 03:29:11;;;;;;;0.20;0.10;;;18.40;90.90;;;;;;4952342;28;20489;-72
2022/07/13 03:31:38;;;;;;;2.42;0.20;;;18.00;91.10;;;;;;4949840;28;20027;-74
2022/07/13 03:34:06;;;;;;;0.70;0.10;;;17.60;91.40;;;;;;4951180;28;20059;-73
2022/07/13 03:36:34;;;;;;;0.88;0.20;;;17.40;91.40;;;;;;4949748;29;20078;-73
2022/07/13 03:39:02;;;;;;;0.95;0.47;;;17.20;91.90;;;;;;4953069;29;20035;-73
2022/07/13 03:41:29;;;;;;;0.57;0.35;;;17.10;91.50;;;;;;4948874;28;20058;-72
2022/07/13 03:43:57;;;;;;;0.52;0.30;;;17.00;91.80;;;;;;4939075;29;20035;-74
2022/07/13 03:46:24;;;;;;;6.53;3.33;;;16.80;91.60;;;;;;4941694;28;20035;-74
2022/07/13 03:48:52;;;;;;;1.23;0.80;;;16.80;91.90;;;;;;4934223;29;20038;-73
2022/07/13 03:51:19;;;;;;;4.20;2.47;;;16.80;92.20;;;;;;4934945;29;20493;-73
2022/07/13 03:53:47;;;;;;;1.65;0.70;;;16.70;92.10;;;;;;4939170;29;20032;-73
2022/07/13 03:56:14;;;;;;;3.65;2.03;;;16.60;92.00;;;;;;4947541;29;20484;-73
2022/07/13 03:58:41;;;;;;;0.80;0.32;;;16.50;92.10;;;;;;4944702;29;20487;-74
2022/07/13 04:01:09;;;;;;;4.78;2.10;;;16.20;92.10;;;;;;4917567;29;20019;-73
2022/07/13 04:03:36;;;;;;;7.82;4.10;;;16.00;92.40;;;;;;4933907;29;20028;-73
2022/07/13 04:06:04;;;;;;;1.63;0.93;;;15.80;92.60;;;;;;4941094;29;20029;-73
2022/07/13 04:08:31;;;;;;;0.93;0.57;;;15.60;92.90;;;;;;4947495;29;20097;-74
2022/07/13 04:10:58;;;;;;;0.50;0.30;;;15.40;93.30;;;;;;4934881;29;20528;-75
2022/07/13 04:13:26;;;;;;;0.40;0.30;;;15.40;93.70;;;;;;4939764;29;20031;-74
2022/07/13 04:15:53;;;;;;;0.22;0.13;;;15.30;94.10;;;;;;4945222;29;20041;-74
2022/07/13 04:18:20;;;;;;;3.00;0.90;;;15.40;94.10;;;;;;4948497;29;20054;-75
2022/07/13 04:20:48;;;;;;;0.47;0.40;;;15.40;94.00;;;;;;4947935;29;20035;-74
2022/07/13 04:23:15;;;;;;;4.20;2.67;;;15.30;93.80;;;;;;4945504;29;20537;-75
2022/07/13 04:25:43;;;;;;;6.82;5.22;;;15.40;94.20;;;;;;4941763;28;20351;-74
2022/07/13 04:28:10;;;;;;;3.17;1.90;;;15.40;93.60;;;;;;4945254;29;20098;-73
2022/07/13 04:30:37;;;;;;;6.07;2.30;;;15.40;93.60;;;;;;4948302;29;20070;-74
2022/07/13 04:33:05;;;;;;;1.95;1.75;;;15.30;93.70;;;;;;4935345;29;20052;-74
2022/07/13 04:35:32;;;;;;;0.90;0.63;;;15.40;94.00;;;;;;4943245;29;20023;-73
2022/07/13 04:37:59;;;;;;;1.30;0.20;;;15.60;93.50;;;;;;4920771;29;20058;-75
2022/07/13 04:40:27;;;;;;;0.47;0.30;;;15.70;93.30;;;;;;4943374;29;20036;-75
2022/07/13 04:42:54;;;;;;;0.65;0.17;;;16.00;93.10;;;;;;4942833;28;20163;-74
2022/07/13 04:45:22;;;;;;;0.20;0.10;;;16.20;92.30;;;;;;4944917;29;20038;-74
2022/07/13 04:47:49;;;;;;;0.20;0.20;;;16.30;92.40;;;;;;4941588;28;20031;-75
2022/07/13 04:50:17;;;;;;;1.60;0.20;;;16.60;92.40;;;;;;4941676;29;20035;-73
2022/07/13 04:52:44;;;;;;;0.45;0.25;;;16.70;92.30;;;;;;4942253;29;20134;-73
2022/07/13 04:55:12;;;;;;;0.13;0.10;;;16.80;92.30;;;;;;4943254;29;20031;-73
2022/07/13 04:57:39;;;;;;;1.20;0.10;;;16.80;92.10;;;;;;4948961;28;20110;-72
2022/07/13 05:00:08;;;;;;;0.28;0.25;;;16.70;92.30;;;;;;4949414;29;20103;-73
2022/07/13 05:02:37;;;;;;;0.00;0.00;;;16.70;92.40;;;;;;4937094;28;20039;-73
2022/07/13 05:05:06;;;;;;;0.10;0.10;;;16.70;92.70;;;;;;4946594;29;20027;-73
2022/07/13 05:07:33;;;;;;;0.10;0.10;;;16.50;92.50;;;;;;4940786;29;20106;-74
2022/07/13 05:10:01;;;;;;;0.25;0.10;;;16.30;92.30;;;;;;4939976;29;20372;-73
2022/07/13 05:12:28;;;;;;;0.45;0.30;;;16.20;92.70;;;;;;4939106;29;20036;-75
2022/07/13 05:14:57;;;;;;;1.30;0.10;;;16.00;93.10;;;;;;4933092;29;20070;-74
2022/07/13 05:17:24;;;;;;;0.28;0.10;;;15.90;92.80;;;;;;4938324;29;20059;-74
2022/07/13 05:19:51;;;;;;;0.20;0.10;;;15.70;93.40;;;;;;4948776;29;20028;-74
2022/07/13 05:22:19;;;;;;;0.00;0.00;;;15.70;93.80;;;;;;4949568;29;20721;-75
2022/07/13 05:24:46;;;;;;;1.65;0.65;;;15.60;93.70;;;;;;4948354;29;20036;-74
2022/07/13 05:27:14;;;;;;;1.30;0.15;;;15.60;94.10;;;;;;4946660;28;20114;-73
2022/07/13 05:29:41;;;;;;;0.35;0.10;;;15.70;93.40;;;;;;4945175;29;20054;-74
2022/07/13 05:32:08;;;;;;;1.27;0.20;;;15.70;93.70;;;;;;4933663;29;20039;-74
2022/07/13 05:34:36;;;;;;;0.77;0.28;;;15.70;94.20;;;;;;4942894;29;20055;-75
2022/07/13 05:37:03;;;;;;;0.28;0.10;;;15.70;94.00;;;;;;4942580;29;20032;-76
2022/07/13 05:39:30;;;;;;;0.45;0.10;;;15.70;94.10;;;;;;4935092;29;20452;-75
2022/07/13 05:41:58;;;;;;;0.32;0.10;;;15.70;94.10;;;;;;4943801;29;20398;-76
2022/07/13 05:44:25;;;;;;;0.13;0.10;;;15.80;93.90;;;;;;4938058;29;20027;-75
2022/07/13 05:46:54;;;;;;;1.75;0.20;;;15.70;94.20;;;;;;4944094;28;20035;-75
2022/07/13 05:49:22;;;;;;;1.20;0.57;;;15.70;94.40;;;;;;4934048;28;20466;-76
2022/07/13 05:51:49;;;;;;;0.60;0.25;;;15.60;94.00;;;;;;4940519;29;20801;-74
2022/07/13 05:54:16;;;;;;;0.30;0.10;;;15.50;94.30;;;;;;4948294;28;20047;-73
2022/07/13 05:56:44;;;;;;;0.10;0.10;;;15.40;94.20;;;;;;4937618;29;20035;-74
2022/07/13 05:59:12;;;;;;;0.30;0.10;;;15.20;94.40;;;;;;4942940;29;20040;-74
2022/07/13 06:01:39;;;;;;;0.30;0.10;;;15.20;94.40;;;;;;4943518;29;20020;-74
2022/07/13 06:04:07;;;;;;;0.30;0.20;;;15.10;94.70;;;;;;4948623;29;20062;-74
2022/07/13 06:06:34;;;;;;;0.30;0.30;;;15.00;95.00;;;;;;4945007;28;20027;-74
2022/07/13 06:09:01;;;;;;;0.57;0.30;;;14.90;94.50;;;;;;4945790;28;20059;-75
2022/07/13 06:11:29;;;;;;;2.33;0.65;;;14.90;94.80;;;;;;4929936;29;20038;-73
2022/07/13 06:13:56;;;;;;;0.13;0.10;;;14.80;94.90;;;;;;4940964;29;20136;-75
2022/07/13 06:16:24;;;;;;;1.27;0.30;;;14.80;94.90;;;;;;4943905;28;20239;-78
2022/07/13 06:18:51;;;;;;;0.32;0.20;;;14.70;95.10;;;;;;4945468;28;20031;-78
2022/07/13 06:21:18;;;;;;;1.10;0.47;;;14.60;95.10;;;;;;4943499;29;20058;-76
2022/07/13 06:23:46;;;;;;;0.38;0.20;;;14.60;95.20;;;;;;4945787;29;20031;-77
2022/07/13 06:26:14;;;;;;;0.60;0.30;;;14.50;95.30;;;;;;4943916;28;20035;-80
2022/07/13 06:28:41;;;;;;;0.70;0.20;;;14.50;95.50;;;;;;4946225;29;20043;-80
2022/07/13 06:31:08;;;;;;;0.30;0.25;;;14.40;96.00;;;;;;4950116;29;20057;-77
2022/07/13 06:33:36;;;;;;;2.67;0.20;;;14.30;95.70;;;;;;4947113;28;20512;-78
2022/07/13 06:36:04;;;;;;;0.47;0.20;;;14.30;95.90;;;;;;4940070;28;20039;-78
2022/07/13 06:38:31;;;;;;;0.20;0.10;;;14.30;96.00;;;;;;4935690;29;20024;-80
2022/07/13 06:40:59;;;;;;;0.17;0.10;;;14.20;95.90;;;;;;4936116;29;20031;-78
2022/07/13 06:43:26;;;;;;;0.60;0.30;;;14.20;95.80;;;;;;4938973;29;20139;-77
2022/07/13 06:45:54;;;;;;;0.35;0.20;;;14.10;95.90;;;;;;4951730;29;20036;-80
2022/07/13 06:48:21;;;;;;;0.52;0.30;;;14.10;96.10;;;;;;4953104;29;20038;-80
2022/07/13 06:50:48;;;;;;;1.13;0.50;;;14.00;96.20;;;;;;4954182;28;20035;-78
2022/07/13 06:53:16;;;;;;;0.22;0.10;;;14.00;96.10;;;;;;4936502;28;20119;-80
2022/07/13 06:55:43;;;;;;;0.40;0.20;;;13.90;96.30;;;;;;4944027;29;20035;-79
2022/07/13 06:58:11;;;;;;;0.40;0.30;;;13.90;96.40;;;;;;4949504;29;20059;-80
2022/07/13 07:00:38;;;;;;;0.40;0.20;;;13.80;96.60;;;;;;4940771;29;20031;-78
2022/07/13 07:03:05;;;;;;;1.48;0.20;;;13.80;96.90;;;;;;4947272;29;20027;-80
2022/07/13 07:05:33;;;;;;;0.38;0.30;;;13.70;97.00;;;;;;4953007;28;20077;-76
2022/07/13 07:08:02;;;;;;;0.55;0.25;;;13.70;97.00;;;;;;4938033;28;20126;-80
2022/07/13 07:10:30;;;;;;;0.55;0.35;;;13.60;97.10;;;;;;4954126;29;20038;-78
2022/07/13 07:12:57;;;;;;;0.70;0.20;;;13.50;97.20;;;;;;4935552;29;20362;-80
2022/07/13 07:15:25;;;;;;;0.40;0.22;;;13.50;97.30;;;;;;4935220;29;20398;-78
2022/07/13 07:17:53;;;;;;;0.40;0.30;;;13.40;97.50;;;;;;4950083;29;20039;-78
2022/07/13 07:20:20;;;;;;;0.93;0.30;;;13.30;97.80;;;;;;4951701;28;20110;-78
2022/07/13 07:22:48;;;;;;;0.40;0.30;;;13.20;97.90;;;;;;4934951;29;20039;-77
2022/07/13 07:25:16;;;;;;;1.08;0.30;;;13.10;98.10;;;;;;4937916;28;20058;-81
2022/07/13 07:27:43;;;;;;;0.50;0.22;;;13.00;98.40;;;;;;4943661;29;20036;-80
2022/07/13 07:30:11;;;;;;;0.63;0.50;;;13.00;98.80;;;;;;4944834;29;20035;-83
2022/07/13 07:32:39;;;;;;;1.33;1.08;;;12.80;98.70;;;;;;4941959;29;20168;-85
2022/07/13 07:35:08;;;;;;;21.13;11.38;;;12.80;98.80;;;;;;4937814;29;20042;-82
2022/07/13 07:37:39;;;;;;;52.22;27.58;;;12.70;99.10;;;;;;4946137;29;20118;-80
2022/07/13 07:40:08;;;;;;;30.02;14.63;;;12.70;99.30;;;;;;4945896;29;20725;-77
2022/07/13 07:42:36;;;;;;;28.00;13.98;;;12.70;99.10;;;;;;4943390;29;20117;-75
2022/07/13 07:45:04;;;;;;;44.58;22.55;;;12.70;99.30;;;;;;4942818;28;20027;-77
2022/07/13 07:47:32;;;;;;;46.83;23.35;;;12.70;99.50;;;;;;4947197;29;20572;-79
2022/07/13 07:49:59;;;;;;;44.30;22.30;;;12.60;99.70;;;;;;4944647;28;20248;-75
2022/07/13 07:52:27;;;;;;;28.98;15.00;;;12.60;99.70;;;;;;4945420;28;20129;-76
2022/07/13 07:54:54;;;;;;;20.17;10.20;;;12.60;99.80;;;;;;4942427;28;20122;-75
2022/07/13 07:57:21;;;;;;;41.35;17.95;;;12.60;99.90;;;;;;4948704;29;20122;-76
2022/07/13 07:59:49;;;;;;;92.88;44.15;;;12.60;99.90;;;;;;4941260;28;20035;-75
2022/07/13 08:02:17;;;;;;;55.38;27.42;;;12.60;99.80;;;;;;4942831;28;20027;-79
2022/07/13 08:04:45;;;;;;;62.55;30.30;;;12.60;99.80;;;;;;4947103;28;20062;-75
2022/07/13 08:07:16;;;;;;;54.70;28.60;;;12.60;99.90;;;;;;4942241;29;20513;-76
2022/07/13 08:09:43;;;;;;;29.17;16.73;;;12.60;99.80;;;;;;4948218;28;20039;-78
2022/07/13 08:12:11;;;;;;;15.32;8.93;;;12.60;99.70;;;;;;4945642;28;20067;-77
2022/07/13 08:14:38;;;;;;;11.68;6.00;;;12.50;99.60;;;;;;4943925;29;20492;-76
2022/07/13 08:17:06;;;;;;;3.50;2.08;;;12.50;99.60;;;;;;4945249;29;20031;-75
2022/07/13 08:19:33;;;;;;;4.25;0.90;;;12.40;99.70;;;;;;4945782;29;20375;-76
2022/07/13 08:22:01;;;;;;;2.58;1.80;;;12.30;99.70;;;;;;4941164;28;20372;-73
2022/07/13 08:24:28;;;;;;;4.22;1.02;;;12.30;99.60;;;;;;4942820;29;20031;-76
2022/07/13 08:26:57;;;;;;;2.47;1.02;;;12.20;99.60;;;;;;4945827;29;20077;-73
2022/07/13 08:29:24;;;;;;;2.10;1.67;;;12.10;99.80;;;;;;4950185;29;20064;-75
2022/07/13 08:31:51;;;;;;;5.55;4.78;;;12.00;99.80;;;;;;4938444;28;20474;-75
2022/07/13 08:40:11;;;;;;;0.93;0.70;;;11.90;99.90;;;;;;4871717;29;20029;-75
2022/07/13 08:42:39;;;;;;;1.48;1.02;;;11.80;99.90;;;;;;4873175;29;20125;-75
2022/07/13 08:45:07;;;;;;;1.50;1.00;;;11.70;99.90;;;;;;4903151;29;20036;-75
2022/07/13 08:47:37;;;;;;;2.45;1.10;;;11.70;99.90;;;;;;4937676;28;20032;-74
2022/07/13 08:50:09;;;;;;;1.23;0.60;;;11.60;99.90;;;;;;4952224;29;20038;-74
2022/07/13 08:52:42;;;;;;;3.25;0.60;;;11.60;99.90;;;;;;4944978;29;20051;-73
2022/07/13 08:55:10;;;;;;;0.75;0.40;;;11.60;99.90;;;;;;4951803;29;20043;-74
2022/07/13 08:57:39;;;;;;;0.70;0.40;;;11.60;99.90;;;;;;4947559;28;20032;-73
2022/07/13 09:00:13;;;;;;;0.77;0.50;;;11.60;99.90;;;;;;4941787;28;20035;-75
2022/07/13 09:02:40;;;;;;;1.50;0.70;;;11.60;99.90;;;;;;4944218;29;20042;-74
2022/07/13 09:05:08;;;;;;;1.10;0.60;;;11.60;99.90;;;;;;4948695;28;20469;-74
2022/07/13 09:07:37;;;;;;;1.92;0.70;;;11.60;99.90;;;;;;4940740;28;20031;-74
2022/07/13 09:10:05;;;;;;;0.63;0.50;;;11.70;99.90;;;;;;4946665;28;20031;-76
2022/07/13 09:12:33;;;;;;;1.98;0.90;;;11.60;99.90;;;;;;4945030;28;20067;-72
2022/07/13 09:15:08;;;;;;;0.88;0.50;;;11.60;99.90;;;;;;4934416;28;20027;-72
2022/07/13 09:17:39;;;;;;;2.53;1.20;;;11.60;99.90;;;;;;4933398;29;20447;-74
2022/07/13 09:20:17;;;;;;;0.82;0.47;;;11.60;99.90;;;;;;4945439;29;20071;-77
2022/07/13 09:22:54;;;;;;;2.55;0.70;;;11.50;99.90;;;;;;4949040;29;20481;-73
2022/07/13 09:25:32;;;;;;;1.85;1.20;;;11.50;99.90;;;;;;4948535;29;20034;-76
2022/07/13 09:28:09;;;;;;;2.30;0.65;;;11.50;99.90;;;;;;4937618;29;20027;-76
2022/07/13 09:30:41;;;;;;;2.17;1.00;;;11.50;99.90;;;;;;4946290;29;20055;-76
2022/07/13 09:33:10;;;;;;;0.90;0.43;;;11.40;99.90;;;;;;4948755;29;20054;-75
2022/07/13 09:35:44;;;;;;;2.20;0.60;;;11.40;99.90;;;;;;4950182;29;20035;-76
2022/07/13 09:38:36;;;;;;;0.75;0.70;;;11.40;99.90;;;;;;4942324;29;20028;-76
2022/07/13 09:41:18;;;;;;;0.45;0.30;;;11.40;99.90;;;;;;4942417;29;20067;-76
2022/07/13 09:46:55;;;;;;;1.00;0.50;;;11.40;99.90;;;;;;4947704;29;20106;-76
2022/07/13 09:49:33;;;;;;;0.90;0.57;;;11.50;99.90;;;;;;4944344;29;20041;-77
2022/07/13 09:52:03;;;;;;;0.80;0.70;;;11.50;99.90;;;;;;4943728;29;20113;-77
2022/07/13 09:54:33;;;;;;;0.80;0.52;;;11.50;99.90;;;;;;4936267;29;20023;-76
2022/07/13 09:57:03;;;;;;;0.60;0.60;;;11.60;99.90;;;;;;4938763;29;20075;-76
2022/07/13 09:59:31;;;;;;;0.90;0.60;;;11.60;99.90;;;;;;4935735;29;20122;-78
2022/07/13 10:01:59;;;;;;;4.15;0.45;;;11.70;99.90;;;;;;4952738;29;20557;-76
2022/07/13 10:04:27;;;;;;;0.55;0.30;;;11.70;99.90;;;;;;4954063;29;20027;-76
2022/07/13 10:06:54;;;;;;;0.90;0.40;;;11.70;99.90;;;;;;4943818;29;20035;-76
2022/07/13 10:09:32;;;;;;;0.55;0.38;;;11.60;99.90;;;;;;4954636;29;20046;-76
2022/07/13 10:12:01;;;;;;;0.60;0.40;;;11.60;99.90;;;;;;4949703;29;20058;-76
2022/07/13 10:14:29;;;;;;;1.50;0.70;;;11.60;99.90;;;;;;4954676;29;20027;-75
2022/07/13 10:17:07;;;;;;;0.75;0.65;;;11.50;99.90;;;;;;4947489;29;20042;-76
2022/07/13 10:19:43;;;;;;;1.20;0.40;;;11.60;99.90;;;;;;4954613;29;20385;-76
2022/07/13 10:22:21;;;;;;;0.70;0.45;;;11.60;99.90;;;;;;4951581;29;20049;-77
2022/07/13 10:25:00;;;;;;;0.98;0.60;;;11.60;99.90;;;;;;4953669;29;20509;-75
2022/07/13 10:27:35;;;;;;;0.40;0.30;;;11.60;99.90;;;;;;4956724;29;20031;-76
2022/07/13 10:30:03;;;;;;;2.25;0.85;;;11.60;99.90;;;;;;4955128;29;20104;-75
2022/07/13 10:32:32;;;;;;;0.52;0.40;;;11.60;99.90;;;;;;4941493;28;20048;-73
2022/07/13 10:35:08;;;;;;;0.90;0.57;;;11.50;99.90;;;;;;4950523;29;20050;-76
2022/07/13 10:37:56;;;;;;;1.10;0.50;;;11.40;99.90;;;;;;4948824;29;20478;-76
2022/07/13 10:40:29;;;;;;;1.10;0.50;;;11.40;99.90;;;;;;4945677;29;20020;-74
2022/07/13 10:43:00;;;;;;;0.43;0.35;;;11.30;99.90;;;;;;4936830;28;20039;-75
2022/07/13 10:45:38;;;;;;;0.73;0.55;;;11.20;99.90;;;;;;4952052;29;20027;-75
2022/07/13 10:48:07;;;;;;;1.55;0.70;;;11.10;99.90;;;;;;4948387;28;20035;-74
2022/07/13 10:50:48;;;;;;;1.98;0.68;;;11.00;99.90;;;;;;4952185;28;20033;-75
2022/07/13 10:53:17;;;;;;;1.88;0.68;;;11.00;99.90;;;;;;4943294;28;20043;-75
2022/07/13 10:55:49;;;;;;;1.10;0.80;;;10.90;99.90;;;;;;4953097;28;20386;-75
2022/07/13 10:58:31;;;;;;;2.05;0.80;;;10.90;99.90;;;;;;4941011;29;20031;-77
2022/07/13 11:01:24;;;;;;;0.82;0.63;;;10.90;99.90;;;;;;4950405;29;20090;-76
2022/07/13 11:03:52;;;;;;;1.35;0.70;;;10.80;99.90;;;;;;4936228;29;20028;-74
2022/07/13 11:06:24;;;;;;;1.20;0.80;;;10.80;99.90;;;;;;4950217;28;20038;-75
2022/07/13 11:09:20;;;;;;;1.42;0.93;;;10.80;99.90;;;;;;4948286;29;20186;-75
2022/07/13 11:11:53;;;;;;;3.40;2.63;;;10.80;99.90;;;;;;4950728;29;20050;-76
2022/07/13 11:14:42;;;;;;;3.05;1.95;;;10.80;99.90;;;;;;4950816;29;20062;-76
2022/07/13 11:17:18;;;;;;;1.95;1.30;;;10.80;99.90;;;;;;4945318;29;20027;-74
2022/07/13 11:19:58;;;;;;;;;;;10.80;99.90;;;;;;4947695;29;20086;-75
2022/07/13 11:25:39;;;;;;;1.95;1.08;;;10.80;99.90;;;;;;4952270;29;20062;-74
2022/07/13 11:28:12;;;;;;;1.33;1.02;;;10.80;99.90;;;;;;4934992;29;20036;-73
2022/07/13 11:30:49;;;;;;;1.77;0.90;;;10.80;99.90;;;;;;4939859;29;20114;-76
2022/07/13 11:33:19;;;;;;;1.10;0.82;;;10.70;99.90;;;;;;4942819;28;20047;-76
2022/07/13 11:35:48;;;;;;;0.98;0.60;;;10.70;99.90;;;;;;4949999;29;20102;-76
2022/07/13 11:38:19;;;;;;;1.13;0.77;;;10.70;99.90;;;;;;4948619;29;20027;-73
2022/07/13 11:40:47;;;;;;;1.35;1.02;;;10.70;99.90;;;;;;4951116;29;20054;-75
2022/07/13 11:43:15;;;;;;;4.70;1.75;;;10.70;99.90;;;;;;4946634;28;20031;-76
2022/07/13 11:45:43;;;;;;;3.17;1.50;;;10.60;99.90;;;;;;4949581;29;20050;-77
2022/07/13 11:48:15;;;;;;;1.58;1.10;;;10.60;99.90;;;;;;4944020;29;20024;-77
2022/07/13 11:50:50;;;;;;;1.33;1.23;;;10.60;99.90;;;;;;4951191;28;20035;-77
2022/07/13 11:53:25;;;;;;;3.10;2.30;;;10.60;99.90;;;;;;4943918;29;20047;-72
2022/07/13 11:55:54;;;;;;;2.28;1.92;;;10.60;99.90;;;;;;4949381;29;20289;-75
2022/07/13 11:58:31;;;;;;;3.20;1.30;;;10.60;99.90;;;;;;4939476;29;20032;-79
2022/07/13 12:01:00;;;;;;;1.63;1.23;;;10.50;99.90;;;;;;4948108;29;20051;-74
2022/07/13 12:03:33;;;;;;;1.60;0.70;;;10.50;99.90;;;;;;4950720;29;20393;-77
2022/07/13 12:06:02;;;;;;;2.13;1.00;;;10.50;99.90;;;;;;4939678;28;20086;-76
2022/07/13 12:08:35;;;;;;;0.95;0.52;;;10.50;99.90;;;;;;4942368;28;20039;-77
2022/07/13 12:11:05;;;;;;;0.65;0.40;;;10.50;99.90;;;;;;4947385;29;20038;-77
2022/07/13 12:13:34;;;;;;;1.55;0.85;;;10.50;99.90;;;;;;4945174;29;20031;-75
2022/07/13 12:16:03;;;;;;;1.65;0.80;;;10.50;99.90;;;;;;4950268;29;20035;-76
2022/07/13 12:18:31;;;;;;;1.13;0.60;;;10.50;99.90;;;;;;4940029;28;20639;-77
2022/07/13 12:20:59;;;;;;;0.90;0.40;;;10.50;99.90;;;;;;4951031;28;20035;-75
2022/07/13 12:23:31;;;;;;;1.80;0.68;;;10.50;99.90;;;;;;4955196;29;20030;-76
2022/07/13 12:26:06;;;;;;;1.48;0.60;;;10.50;99.90;;;;;;4950910;29;20031;-77
2022/07/13 12:28:38;;;;;;;1.33;0.53;;;10.40;99.90;;;;;;4948953;28;20766;-75
2022/07/13 12:31:07;;;;;;;1.27;0.65;;;10.40;99.90;;;;;;4942607;28;20273;-75
2022/07/13 12:33:46;;;;;;;1.02;0.50;;;10.40;99.90;;;;;;4943150;29;20188;-76
2022/07/13 12:36:15;;;;;;;1.05;0.50;;;10.40;99.90;;;;;;4940534;28;20051;-76
2022/07/13 12:39:04;;;;;;;0.80;0.57;;;10.40;99.90;;;;;;4943771;28;20043;-76
2022/07/13 12:41:40;;;;;;;0.90;0.65;;;10.40;99.90;;;;;;4942129;29;20042;-75
2022/07/13 12:44:09;;;;;;;1.10;0.75;;;10.50;99.90;;;;;;4942274;28;20097;-78
2022/07/13 12:46:58;;;;;;;1.80;0.60;;;10.40;99.90;;;;;;4940702;28;20031;-76
2022/07/13 12:49:42;;;;;;;1.70;0.70;;;10.40;99.90;;;;;;4945084;29;20038;-76
2022/07/13 12:52:11;;;;;;;0.47;0.47;;;10.40;99.90;;;;;;4941737;29;20031;-80
2022/07/13 12:54:57;;;;;;;2.80;0.63;;;10.30;99.90;;;;;;4951769;29;20052;-76
2022/07/13 12:57:34;;;;;;;0.52;0.40;;;10.30;99.90;;;;;;4932615;29;20023;-75
2022/07/13 13:00:16;;;;;;;0.85;0.50;;;10.30;99.90;;;;;;4947427;29;20127;-75
2022/07/13 13:02:43;;;;;;;1.13;0.60;;;10.30;99.90;;;;;;4948531;29;20050;-77
2022/07/13 13:05:11;;;;;;;0.93;0.50;;;10.30;99.90;;;;;;4952172;29;20049;-77
2022/07/13 13:07:39;;;;;;;1.15;0.50;;;10.30;99.90;;;;;;4946505;29;20031;-76
2022/07/13 13:10:08;;;;;;;0.90;0.50;;;10.30;99.90;;;;;;4946215;28;20031;-77